createdAt,value
2023-02-19T00:00:57.737Z,100.00
2023-02-19T00:03:24.403Z,100.00
2023-02-19T00:05:50.938Z,99.26
2023-02-19T00:08:17.440Z,98.77
2023-02-19T00:10:43.936Z,99.56
2023-02-19T00:13:10.633Z,100.00
2023-02-19T00:15:37.321Z,100.00
2023-02-19T00:18:03.892Z,100.00
2023-02-19T00:20:30.369Z,100.00
2023-02-19T00:22:56.969Z,100.00
2023-02-19T00:25:23.606Z,98.88
2023-02-19T00:27:50.093Z,98.19
2023-02-19T00:30:16.695Z,97.80
2023-02-19T00:32:43.256Z,97.33
2023-02-19T00:35:11.172Z,96.71
2023-02-19T00:37:37.665Z,97.18
2023-02-19T00:40:04.382Z,97.17
2023-02-19T00:42:31.023Z,97.57
2023-02-19T00:44:57.544Z,97.14
2023-02-19T00:47:24.034Z,96.53
2023-02-19T00:49:50.521Z,96.51
2023-02-19T00:52:17.072Z,96.28
2023-02-19T00:54:43.649Z,95.93
2023-02-19T00:57:10.363Z,95.25
2023-02-19T00:59:36.913Z,94.86
2023-02-19T01:02:03.845Z,95.06
2023-02-19T01:04:30.488Z,94.91
2023-02-19T01:06:57.135Z,95.28
2023-02-19T01:09:23.706Z,95.44
2023-02-19T01:11:50.241Z,95.64
2023-02-19T01:14:17.220Z,94.71
2023-02-19T01:16:43.770Z,94.73
2023-02-19T01:19:10.325Z,94.54
2023-02-19T01:21:36.896Z,94.75
2023-02-19T01:24:03.521Z,94.16
2023-02-19T01:26:32.075Z,93.95
2023-02-19T01:29:02.596Z,93.76
2023-02-19T01:31:29.984Z,93.49
2023-02-19T01:33:59.391Z,93.59
2023-02-19T01:36:28.193Z,94.64
2023-02-19T01:38:55.537Z,94.37
2023-02-19T01:41:24.700Z,94.92
2023-02-19T01:44:12.414Z,94.49
2023-02-19T01:46:43.177Z,94.60
2023-02-19T01:49:18.610Z,95.68
2023-02-19T01:51:50.679Z,95.62
2023-02-19T01:54:22.326Z,95.54
2023-02-19T01:56:49.916Z,96.37
2023-02-19T01:59:17.499Z,96.83
2023-02-19T02:01:44.904Z,96.87
2023-02-19T02:04:14.299Z,96.50
2023-02-19T02:06:56.352Z,97.27
2023-02-19T02:09:45.161Z,97.10
2023-02-19T02:12:12.745Z,97.51
2023-02-19T02:14:42.794Z,97.47
2023-02-19T02:17:30.083Z,98.18
2023-02-19T02:19:59.427Z,97.64
2023-02-19T02:22:30.603Z,98.56
2023-02-19T02:25:03.647Z,97.59
2023-02-19T02:27:43.590Z,96.64
2023-02-19T02:30:23.821Z,97.15
2023-02-19T02:33:15.717Z,97.92
2023-02-19T02:35:51.094Z,98.76
2023-02-19T02:38:22.605Z,99.51
2023-02-19T02:40:49.440Z,99.36
2023-02-19T02:43:16.495Z,99.67
2023-02-19T02:45:43.242Z,99.98
2023-02-19T02:48:37.311Z,99.97
2023-02-19T02:51:36.271Z,100.00
2023-02-19T02:54:27.576Z,100.00
2023-02-19T02:56:56.433Z,99.78
2023-02-19T02:59:26.257Z,100.00
2023-02-19T03:02:10.847Z,100.00
2023-02-19T03:05:14.592Z,100.00
2023-02-19T03:08:04.214Z,100.00
2023-02-19T03:11:24.228Z,100.00
2023-02-19T03:14:14.001Z,100.00
2023-02-19T03:17:01.809Z,100.00
2023-02-19T03:19:31.586Z,100.00
2023-02-19T03:22:30.023Z,100.00
2023-02-19T03:25:23.493Z,100.00
2023-02-19T03:27:52.072Z,100.00
2023-02-19T03:30:23.519Z,100.00
2023-02-19T03:32:58.044Z,100.00
2023-02-19T03:35:30.068Z,100.00
2023-02-19T03:38:02.565Z,100.00
2023-02-19T03:40:34.416Z,100.00
2023-02-19T03:43:11.890Z,100.00
2023-02-19T03:46:06.509Z,99.83
2023-02-19T03:48:41.873Z,99.21
2023-02-19T03:51:33.532Z,100.00
2023-02-19T03:54:22.818Z,100.00
2023-02-19T03:56:58.589Z,99.54
2023-02-19T03:59:59.573Z,99.76
2023-02-19T04:02:46.083Z,99.56
2023-02-19T04:05:21.272Z,99.26
2023-02-19T04:07:51.345Z,97.24
2023-02-19T04:10:23.927Z,99.06
2023-02-19T04:13:09.636Z,99.68
2023-02-19T04:15:37.793Z,99.23
2023-02-19T04:18:08.418Z,99.22
2023-02-19T04:20:40.650Z,99.23
2023-02-19T04:23:07.666Z,95.97
2023-02-19T04:25:37.089Z,98.42
2023-02-19T04:28:04.325Z,98.80
2023-02-19T04:30:31.320Z,97.97
2023-02-19T04:32:57.885Z,97.36
2023-02-19T04:35:24.374Z,97.03
2023-02-19T04:37:51.021Z,97.47
2023-02-19T04:40:17.558Z,97.80
2023-02-19T04:42:44.036Z,97.94
2023-02-19T04:45:10.519Z,97.87
2023-02-19T04:47:37.018Z,98.13
2023-02-19T04:50:04.078Z,97.72
2023-02-19T04:52:30.704Z,98.13
2023-02-19T04:54:57.245Z,97.86
2023-02-19T04:57:23.958Z,96.34
2023-02-19T04:59:50.487Z,94.94
2023-02-19T05:02:17.015Z,95.00
2023-02-19T05:04:43.574Z,95.54
2023-02-19T05:07:10.130Z,95.37
2023-02-19T05:09:36.690Z,95.68
2023-02-19T05:12:03.447Z,95.77
2023-02-19T05:14:29.939Z,95.68
2023-02-19T05:16:56.447Z,95.52
2023-02-19T05:19:23.056Z,95.91
2023-02-19T05:21:49.560Z,96.01
2023-02-19T05:24:16.101Z,96.09
2023-02-19T05:26:45.132Z,96.10
2023-02-19T05:29:11.956Z,96.24
2023-02-19T05:31:38.634Z,96.80
2023-02-19T05:34:05.254Z,96.18
2023-02-19T05:36:32.478Z,96.69
2023-02-19T05:38:59.007Z,97.00
2023-02-19T05:41:28.231Z,97.36
2023-02-19T05:43:55.950Z,97.83
2023-02-19T05:46:25.092Z,98.39
2023-02-19T05:48:53.212Z,98.81
2023-02-19T05:51:22.913Z,99.53
2023-02-19T05:53:50.036Z,100.00
2023-02-19T05:56:33.484Z,100.00
2023-02-19T05:59:03.931Z,100.00
2023-02-19T06:01:31.230Z,100.00
2023-02-19T06:03:58.156Z,100.00
2023-02-19T06:06:25.735Z,100.00
2023-02-19T06:08:52.214Z,100.00
2023-02-19T06:11:19.744Z,100.00
2023-02-19T06:13:46.432Z,100.00
2023-02-19T06:16:13.222Z,100.00
2023-02-19T06:18:41.137Z,99.42
2023-02-19T06:21:10.847Z,99.35
2023-02-19T06:23:38.372Z,98.87
2023-02-19T06:26:17.663Z,99.04
2023-02-19T06:28:45.428Z,98.52
2023-02-19T06:31:12.921Z,99.48
2023-02-19T06:33:40.719Z,99.38
2023-02-19T06:36:11.147Z,99.09
2023-02-19T06:38:37.775Z,98.91
2023-02-19T06:41:06.467Z,98.49
2023-02-19T06:43:33.922Z,97.98
2023-02-19T06:46:05.469Z,97.93
2023-02-19T06:48:33.013Z,97.61
2023-02-19T06:50:59.832Z,97.31
2023-02-19T06:53:26.549Z,97.46
2023-02-19T06:56:04.947Z,97.99
2023-02-19T06:58:32.137Z,97.87
2023-02-19T07:00:58.743Z,98.73
2023-02-19T07:03:26.404Z,99.00
2023-02-19T07:05:53.419Z,99.85
2023-02-19T07:08:20.229Z,99.88
2023-02-19T07:10:55.397Z,100.00
2023-02-19T07:13:22.329Z,100.00
2023-02-19T07:15:51.090Z,100.00
2023-02-19T07:18:19.320Z,100.00
2023-02-19T07:20:45.980Z,100.00
2023-02-19T07:23:12.552Z,100.00
2023-02-19T07:25:39.415Z,100.00
2023-02-19T07:28:06.316Z,100.00
2023-02-19T07:30:32.988Z,100.00
2023-02-19T07:32:59.604Z,100.00
2023-02-19T07:35:26.596Z,100.00
2023-02-19T07:37:53.310Z,100.00
2023-02-19T07:40:19.885Z,100.00
2023-02-19T07:42:46.422Z,100.00
2023-02-19T07:45:13.006Z,100.00
2023-02-19T07:47:39.635Z,100.00
2023-02-19T07:50:06.457Z,100.00
2023-02-19T07:52:34.325Z,100.00
2023-02-19T07:55:00.922Z,100.00
2023-02-19T07:57:31.242Z,100.00
2023-02-19T07:59:58.847Z,100.00
2023-02-19T08:02:44.189Z,100.00
2023-02-19T08:05:10.708Z,100.00
2023-02-19T08:07:37.481Z,100.00
2023-02-19T08:10:23.832Z,100.00
2023-02-19T08:13:18.925Z,100.00
2023-02-19T08:15:50.660Z,100.00
2023-02-19T08:18:18.784Z,100.00
2023-02-19T08:20:45.610Z,100.00
2023-02-19T08:23:12.564Z,100.00
2023-02-19T08:25:40.127Z,100.00
2023-02-19T08:28:09.265Z,100.00
2023-02-19T08:30:38.339Z,100.00
2023-02-19T08:33:06.791Z,100.00
2023-02-19T08:35:36.498Z,100.00
2023-02-19T08:38:04.680Z,100.00
2023-02-19T08:40:31.785Z,100.00
2023-02-19T08:43:15.506Z,100.00
2023-02-19T08:45:44.980Z,100.00
2023-02-19T08:48:11.952Z,100.00
2023-02-19T08:50:38.785Z,100.00
2023-02-19T08:53:06.375Z,100.00
2023-02-19T08:55:33.673Z,100.00
2023-02-19T08:58:00.410Z,100.00
2023-02-19T09:00:27.431Z,100.00
2023-02-19T09:02:53.998Z,100.00
2023-02-19T09:05:20.554Z,100.00
2023-02-19T09:07:47.109Z,100.00
2023-02-19T09:10:14.429Z,100.00
2023-02-19T09:12:41.460Z,100.00
2023-02-19T09:15:08.434Z,100.00
2023-02-19T09:17:35.263Z,100.00
2023-02-19T09:20:01.906Z,100.00
2023-02-19T09:22:28.448Z,100.00
2023-02-19T09:24:55.023Z,100.00
2023-02-19T09:27:21.530Z,100.00
2023-02-19T09:29:48.038Z,100.00
2023-02-19T09:32:14.656Z,100.00
2023-02-19T09:34:41.711Z,100.00
2023-02-19T09:37:08.692Z,100.00
2023-02-19T09:39:35.971Z,100.00
2023-02-19T09:42:11.756Z,100.00
2023-02-19T09:44:41.834Z,100.00
2023-02-19T09:47:17.165Z,100.00
2023-02-19T09:49:50.166Z,100.00
2023-02-19T09:52:32.586Z,100.00
2023-02-19T09:55:03.374Z,100.00
2023-02-19T09:57:33.233Z,100.00
2023-02-19T10:00:14.043Z,100.00
2023-02-19T10:02:40.627Z,100.00
2023-02-19T10:05:13.991Z,100.00
2023-02-19T10:07:45.322Z,100.00
2023-02-19T10:10:14.811Z,100.00
2023-02-19T10:12:46.817Z,100.00
2023-02-19T10:15:32.172Z,100.00
2023-02-19T10:17:58.976Z,100.00
2023-02-19T10:20:27.889Z,100.00
2023-02-19T10:23:04.855Z,99.64
2023-02-19T10:25:33.396Z,97.89
2023-02-19T10:28:01.078Z,97.48
2023-02-19T10:30:34.688Z,97.32
2023-02-19T10:33:13.193Z,96.79
2023-02-19T10:35:58.415Z,97.01
2023-02-19T10:38:37.519Z,96.44
2023-02-19T10:41:13.816Z,96.86
2023-02-19T10:43:45.481Z,96.56
2023-02-19T10:46:23.311Z,96.38
2023-02-19T10:48:54.141Z,95.41
2023-02-19T10:51:22.955Z,95.14
2023-02-19T10:53:52.167Z,95.11
2023-02-19T10:56:30.282Z,95.64
2023-02-19T10:59:27.648Z,95.00
2023-02-19T11:02:17.109Z,94.28
2023-02-19T11:05:04.633Z,94.25
2023-02-19T11:07:31.287Z,93.86
2023-02-19T11:09:58.965Z,94.31
2023-02-19T11:12:28.934Z,94.85
2023-02-19T11:14:55.778Z,94.04
2023-02-19T11:17:28.552Z,94.14
2023-02-19T11:19:58.429Z,91.78
2023-02-19T11:22:30.726Z,90.64
2023-02-19T11:25:07.673Z,88.79
2023-02-19T11:27:34.207Z,88.93
2023-02-19T11:30:22.603Z,87.89
2023-02-19T11:32:49.143Z,87.62
2023-02-19T11:35:22.652Z,88.33
2023-02-19T11:37:59.942Z,88.18
2023-02-19T11:40:55.768Z,87.93
2023-02-19T11:43:52.780Z,88.00
2023-02-19T11:46:43.487Z,87.99
2023-02-19T11:49:12.834Z,86.74
2023-02-19T11:51:52.761Z,88.18
2023-02-19T11:54:51.948Z,88.74
2023-02-19T11:57:27.265Z,86.64
2023-02-19T11:59:59.696Z,87.65
2023-02-19T12:02:57.393Z,87.96
2023-02-19T12:05:47.125Z,88.59
2023-02-19T12:08:23.590Z,87.99
2023-02-19T12:10:50.049Z,87.66
2023-02-19T12:13:25.857Z,88.39
2023-02-19T12:16:10.462Z,87.92
2023-02-19T12:19:09.107Z,87.81
2023-02-19T12:21:58.845Z,88.35
2023-02-19T12:24:37.621Z,87.55
2023-02-19T12:27:36.303Z,87.95
2023-02-19T12:30:57.839Z,88.90
2023-02-19T12:33:27.027Z,88.34
2023-02-19T12:36:02.769Z,87.64
2023-02-19T12:38:44.272Z,87.17
2023-02-19T12:41:21.740Z,87.46
2023-02-19T12:43:55.965Z,85.46
2023-02-19T12:46:29.642Z,84.29
2023-02-19T12:49:14.893Z,83.03
2023-02-19T12:51:49.959Z,82.82
2023-02-19T12:54:30.652Z,82.99
2023-02-19T12:57:05.045Z,82.29
2023-02-19T12:59:56.491Z,82.99
2023-02-19T13:02:42.112Z,82.74
2023-02-19T13:05:18.915Z,82.46
2023-02-19T13:07:57.569Z,83.53
2023-02-19T13:10:39.938Z,83.98
2023-02-19T13:13:16.731Z,84.03
2023-02-19T13:15:48.529Z,83.69
2023-02-19T13:18:18.176Z,84.05
2023-02-19T13:20:46.708Z,83.93
2023-02-19T13:23:43.859Z,84.16
2023-02-19T13:26:45.149Z,84.26
2023-02-19T13:29:52.935Z,85.01
2023-02-19T13:32:54.676Z,84.91
2023-02-19T13:35:52.017Z,85.14
2023-02-19T13:38:18.926Z,84.86
2023-02-19T13:40:57.932Z,85.22
2023-02-19T13:43:34.646Z,85.48
2023-02-19T13:46:06.308Z,85.71
2023-02-19T13:48:35.320Z,85.40
2023-02-19T13:51:18.632Z,86.15
2023-02-19T13:53:45.104Z,85.49
2023-02-19T13:56:30.061Z,86.30
2023-02-19T13:59:01.356Z,85.64
2023-02-19T14:01:56.905Z,85.88
2023-02-19T14:04:51.614Z,86.35
2023-02-19T14:07:18.097Z,86.33
2023-02-19T14:09:46.252Z,86.89
2023-02-19T14:12:15.505Z,87.05
2023-02-19T14:14:43.615Z,88.17
2023-02-19T14:17:10.105Z,89.52
2023-02-19T14:19:42.836Z,91.15
2023-02-19T14:22:50.074Z,91.36
2023-02-19T14:25:27.821Z,92.08
2023-02-19T14:28:00.497Z,92.30
2023-02-19T14:30:28.111Z,92.53
2023-02-19T14:33:09.740Z,92.50
2023-02-19T14:35:46.111Z,93.00
2023-02-19T14:38:27.166Z,92.86
2023-02-19T14:40:55.354Z,92.63
2023-02-19T14:43:25.119Z,92.48
2023-02-19T14:45:56.489Z,92.87
2023-02-19T14:48:31.093Z,93.27
2023-02-19T14:51:04.151Z,93.02
2023-02-19T14:53:32.700Z,93.37
2023-02-19T14:56:00.112Z,93.37
2023-02-19T14:58:31.895Z,93.98
2023-02-19T15:00:58.586Z,93.43
2023-02-19T15:03:36.658Z,94.26
2023-02-19T15:06:12.871Z,94.29
2023-02-19T15:08:46.043Z,95.02
2023-02-19T15:11:19.034Z,95.03
2023-02-19T15:13:55.735Z,94.85
2023-02-19T15:16:25.914Z,94.79
2023-02-19T15:18:54.769Z,94.54
2023-02-19T15:21:27.068Z,95.26
2023-02-19T15:23:56.298Z,94.80
2023-02-19T15:26:31.702Z,94.58
2023-02-19T15:29:04.730Z,94.41
2023-02-19T15:31:31.352Z,94.18
2023-02-19T15:33:58.017Z,94.07
2023-02-19T15:36:29.258Z,94.50
2023-02-19T15:38:59.250Z,93.23
2023-02-19T15:41:29.891Z,92.52
2023-02-19T15:44:06.797Z,92.46
2023-02-19T15:46:35.678Z,92.87
2023-02-19T15:49:13.044Z,92.41
2023-02-19T15:51:55.322Z,92.31
2023-02-19T15:54:33.946Z,91.61
2023-02-19T15:57:07.059Z,91.04
2023-02-19T15:59:46.856Z,91.55
2023-02-19T16:02:15.518Z,91.13
2023-02-19T16:04:44.335Z,90.97
2023-02-19T16:07:25.552Z,90.85
2023-02-19T16:10:24.277Z,91.14
2023-02-19T16:13:01.801Z,91.05
2023-02-19T16:15:30.662Z,90.69
2023-02-19T16:17:58.831Z,90.47
2023-02-19T16:20:31.924Z,90.77
2023-02-19T16:23:24.018Z,90.40
2023-02-19T16:25:58.750Z,90.03
2023-02-19T16:28:28.411Z,89.98
2023-02-19T16:31:09.464Z,89.26
2023-02-19T16:33:38.679Z,89.46
2023-02-19T16:36:28.699Z,90.13
2023-02-19T16:39:15.566Z,90.50
2023-02-19T16:42:12.416Z,90.69
2023-02-19T16:44:38.981Z,90.37
2023-02-19T16:47:13.615Z,91.00
2023-02-19T16:49:42.414Z,90.91
2023-02-19T16:52:14.185Z,91.09
2023-02-19T16:54:40.828Z,90.81
2023-02-19T16:57:07.360Z,91.11
2023-02-19T16:59:33.936Z,91.20
2023-02-19T17:02:02.760Z,91.05
2023-02-19T17:04:29.965Z,90.97
2023-02-19T17:06:56.703Z,91.30
2023-02-19T17:09:23.249Z,91.13
2023-02-19T17:11:49.877Z,90.83
2023-02-19T17:14:16.434Z,90.72
2023-02-19T17:16:43.446Z,90.23
2023-02-19T17:19:14.114Z,90.57
2023-02-19T17:21:40.965Z,90.44
2023-02-19T17:24:07.904Z,90.62
2023-02-19T17:26:34.482Z,90.77
2023-02-19T17:29:04.427Z,90.74
2023-02-19T17:31:31.317Z,90.25
2023-02-19T17:33:58.942Z,90.73
2023-02-19T17:36:30.288Z,90.89
2023-02-19T17:39:01.538Z,90.82
2023-02-19T17:41:28.694Z,90.77
2023-02-19T17:43:55.364Z,90.86
2023-02-19T17:46:24.775Z,91.26
2023-02-19T17:48:51.680Z,91.45
2023-02-19T17:51:18.368Z,91.74
2023-02-19T17:53:46.496Z,92.00
2023-02-19T17:56:25.640Z,92.19
2023-02-19T17:58:53.129Z,92.14
2023-02-19T18:01:19.765Z,92.51
2023-02-19T18:03:46.539Z,92.40
2023-02-19T18:06:13.174Z,92.70
2023-02-19T18:08:40.017Z,92.83
2023-02-19T18:11:07.237Z,92.67
2023-02-19T18:13:33.744Z,92.75
2023-02-19T18:16:00.315Z,92.96
2023-02-19T18:18:26.882Z,92.28
2023-02-19T18:20:53.428Z,92.01
2023-02-19T18:23:20.665Z,92.04
2023-02-19T18:25:47.369Z,91.94
2023-02-19T18:28:14.912Z,91.61
2023-02-19T18:30:41.479Z,91.36
2023-02-19T18:33:10.752Z,91.62
2023-02-19T18:35:37.994Z,91.67
2023-02-19T18:38:05.699Z,91.51
2023-02-19T18:40:32.303Z,90.95
2023-02-19T18:42:58.996Z,90.75
2023-02-19T18:45:25.854Z,90.64
2023-02-19T18:47:52.356Z,90.53
2023-02-19T18:50:19.515Z,90.64
2023-02-19T18:52:46.406Z,90.50
2023-02-19T18:55:13.175Z,90.48
2023-02-19T18:57:39.714Z,90.67
2023-02-19T19:00:07.454Z,90.86
2023-02-19T19:02:48.289Z,90.60
2023-02-19T19:05:18.514Z,90.66
2023-02-19T19:07:45.024Z,90.67
2023-02-19T19:10:11.613Z,91.09
2023-02-19T19:12:38.139Z,91.33
2023-02-19T19:15:05.481Z,91.31
2023-02-19T19:17:31.952Z,91.11
2023-02-19T19:19:58.524Z,90.98
2023-02-19T19:22:26.624Z,91.26
2023-02-19T19:24:53.220Z,90.90
2023-02-19T19:27:20.547Z,90.77
2023-02-19T19:29:47.839Z,90.78
2023-02-19T19:32:14.528Z,90.85
2023-02-19T19:34:42.689Z,90.83
2023-02-19T19:37:09.895Z,90.81
2023-02-19T19:39:37.079Z,90.22
2023-02-19T19:42:03.835Z,90.54
2023-02-19T19:44:30.333Z,89.90
2023-02-19T19:46:56.897Z,90.14
2023-02-19T19:49:23.489Z,89.67
2023-02-19T19:51:50.271Z,89.72
2023-02-19T19:54:16.837Z,89.81
2023-02-19T19:56:46.167Z,89.95
2023-02-19T19:59:15.180Z,90.29
2023-02-19T20:01:52.890Z,90.40
2023-02-19T20:04:21.124Z,90.08
2023-02-19T20:06:48.181Z,89.93
2023-02-19T20:09:15.952Z,90.57
2023-02-19T20:11:47.044Z,90.28
2023-02-19T20:14:14.489Z,89.61
2023-02-19T20:16:42.661Z,89.43
2023-02-19T20:19:10.505Z,89.42
2023-02-19T20:21:37.024Z,89.89
2023-02-19T20:24:03.680Z,89.64
2023-02-19T20:26:30.665Z,89.44
2023-02-19T20:28:58.046Z,89.41
2023-02-19T20:31:25.434Z,88.70
2023-02-19T20:33:52.326Z,88.82
2023-02-19T20:36:20.123Z,88.51
2023-02-19T20:38:48.898Z,88.70
2023-02-19T20:41:15.466Z,88.47
2023-02-19T20:43:42.029Z,88.75
2023-02-19T20:46:08.650Z,88.25
2023-02-19T20:48:35.223Z,88.47
2023-02-19T20:51:01.948Z,88.38
2023-02-19T20:53:29.486Z,88.58
2023-02-19T20:55:56.353Z,88.80
2023-02-19T20:58:23.650Z,88.55
2023-02-19T21:00:53.467Z,88.58
2023-02-19T21:03:20.713Z,88.38
2023-02-19T21:05:47.326Z,88.40
2023-02-19T21:08:14.955Z,88.29
2023-02-19T21:10:41.522Z,88.22
2023-02-19T21:13:08.080Z,88.70
2023-02-19T21:15:34.666Z,88.76
2023-02-19T21:18:01.269Z,88.53
2023-02-19T21:20:27.811Z,88.52
2023-02-19T21:22:54.351Z,88.59
2023-02-19T21:25:20.921Z,88.85
2023-02-19T21:27:47.422Z,88.73
2023-02-19T21:30:14.075Z,88.62
2023-02-19T21:32:40.643Z,88.64
2023-02-19T21:35:07.570Z,88.51
2023-02-19T21:37:34.109Z,88.68
2023-02-19T21:40:00.685Z,88.88
2023-02-19T21:42:27.409Z,88.84
2023-02-19T21:44:53.999Z,88.77
2023-02-19T21:47:20.520Z,89.12
2023-02-19T21:49:47.073Z,88.84
2023-02-19T21:52:13.593Z,89.33
2023-02-19T21:54:40.183Z,89.15
2023-02-19T21:57:06.942Z,89.23
2023-02-19T21:59:33.506Z,89.45
2023-02-19T22:02:00.049Z,88.94
2023-02-19T22:04:27.324Z,88.96
2023-02-19T22:06:56.899Z,89.55
2023-02-19T22:09:23.712Z,89.32
2023-02-19T22:11:50.321Z,89.65
2023-02-19T22:14:17.082Z,89.75
2023-02-19T22:16:43.754Z,90.09
2023-02-19T22:19:11.923Z,90.11
2023-02-19T22:21:43.588Z,90.03
2023-02-19T22:24:16.477Z,89.97
2023-02-19T22:26:43.515Z,90.13
2023-02-19T22:29:11.489Z,90.43
2023-02-19T22:31:38.155Z,90.11
2023-02-19T22:34:04.869Z,90.12
2023-02-19T22:36:33.189Z,90.54
2023-02-19T22:39:00.707Z,90.23
2023-02-19T22:41:27.248Z,90.30
2023-02-19T22:43:58.440Z,90.34
2023-02-19T22:46:28.036Z,90.26
2023-02-19T22:48:54.656Z,90.26
2023-02-19T22:51:23.053Z,89.99
2023-02-19T22:53:53.823Z,90.21
2023-02-19T22:56:22.478Z,90.54
2023-02-19T22:58:49.248Z,90.30
2023-02-19T23:01:16.012Z,90.26
2023-02-19T23:03:51.326Z,90.50
2023-02-19T23:06:27.066Z,90.71
2023-02-19T23:08:55.111Z,90.37
2023-02-19T23:11:24.217Z,90.51
2023-02-19T23:13:50.866Z,90.84
2023-02-19T23:16:18.060Z,90.51
2023-02-19T23:18:44.718Z,90.55
2023-02-19T23:21:11.710Z,90.48
2023-02-19T23:23:42.239Z,91.07
2023-02-19T23:26:09.602Z,90.70
2023-02-19T23:28:36.227Z,90.56
2023-02-19T23:31:02.789Z,90.50
2023-02-19T23:33:29.312Z,90.77
2023-02-19T23:35:55.862Z,91.09
2023-02-19T23:38:22.432Z,90.60
2023-02-19T23:40:48.953Z,91.02
2023-02-19T23:43:15.483Z,90.91
2023-02-19T23:45:42.089Z,90.88
2023-02-19T23:48:08.643Z,90.98
2023-02-19T23:50:35.153Z,90.92
2023-02-19T23:53:01.774Z,90.81
2023-02-19T23:55:28.362Z,91.08
2023-02-19T23:57:54.868Z,90.90
